createdAt,value
2024-05-09T00:00:06.723Z,109.37
2024-05-09T00:01:05.177Z,109.47
2024-05-09T00:02:05.165Z,109.55
2024-05-09T00:03:05.225Z,109.71
2024-05-09T00:04:05.228Z,109.45
2024-05-09T00:05:05.246Z,108.26
2024-05-09T00:06:05.323Z,107.24
2024-05-09T00:07:05.097Z,108.03
2024-05-09T00:08:05.241Z,110.50
2024-05-09T00:09:05.120Z,110.26
2024-05-09T00:10:07.118Z,109.43
2024-05-09T00:11:05.240Z,109.61
2024-05-09T00:12:05.342Z,110.26
2024-05-09T00:13:05.312Z,110.20
2024-05-09T00:14:05.178Z,110.63
2024-05-09T00:15:05.147Z,111.57
2024-05-09T00:16:05.169Z,110.72
2024-05-09T00:17:05.158Z,110.27
2024-05-09T00:18:06.051Z,110.84
2024-05-09T00:19:05.316Z,112.46
2024-05-09T00:20:11.142Z,112.44
2024-05-09T00:21:06.293Z,112.60
2024-05-09T00:22:05.158Z,112.73
2024-05-09T00:23:05.146Z,112.67
2024-05-09T00:24:05.127Z,112.57
2024-05-09T00:25:05.111Z,113.09
2024-05-09T00:26:05.210Z,113.92
2024-05-09T00:27:06.165Z,112.04
2024-05-09T00:28:05.130Z,114.23
2024-05-09T00:29:05.231Z,115.49
2024-05-09T00:30:07.037Z,107.62
2024-05-09T00:31:05.179Z,110.68
2024-05-09T00:32:05.210Z,113.81
2024-05-09T00:33:06.486Z,110.40
2024-05-09T00:34:05.721Z,111.71
2024-05-09T00:35:05.411Z,111.93
2024-05-09T00:36:05.407Z,111.66
2024-05-09T00:37:05.457Z,112.04
2024-05-09T00:38:05.597Z,114.52
2024-05-09T00:39:05.477Z,112.59
2024-05-09T00:40:07.547Z,113.06
2024-05-09T00:41:05.551Z,113.17
2024-05-09T00:42:05.498Z,113.14
2024-05-09T00:43:05.549Z,113.49
2024-05-09T00:44:05.549Z,114.63
2024-05-09T00:45:05.523Z,112.55
2024-05-09T00:46:05.508Z,114.19
2024-05-09T00:47:05.652Z,113.52
2024-05-09T00:48:05.661Z,113.54
2024-05-09T00:49:05.602Z,113.88
2024-05-09T00:50:09.947Z,113.42
2024-05-09T00:51:06.638Z,113.61
2024-05-09T00:52:05.516Z,113.69
2024-05-09T00:53:05.555Z,114.87
2024-05-09T00:54:05.531Z,114.09
2024-05-09T00:55:05.513Z,117.42
2024-05-09T00:56:05.570Z,115.15
2024-05-09T00:57:05.518Z,115.31
2024-05-09T00:58:05.530Z,116.50
2024-05-09T00:59:05.609Z,115.75
2024-05-09T01:00:07.794Z,114.75
2024-05-09T01:01:05.599Z,114.92
2024-05-09T01:02:05.573Z,115.40
2024-05-09T01:03:05.934Z,115.60
2024-05-09T01:04:05.616Z,114.97
2024-05-09T01:05:05.659Z,119.42
2024-05-09T01:06:05.573Z,118.19
2024-05-09T01:07:05.588Z,116.80
2024-05-09T01:08:05.604Z,115.21
2024-05-09T01:09:05.534Z,113.54
2024-05-09T01:10:11.475Z,116.61
2024-05-09T01:11:06.652Z,116.80
2024-05-09T01:12:05.740Z,116.92
2024-05-09T01:13:06.063Z,117.60
2024-05-09T01:14:05.612Z,116.68
2024-05-09T01:15:05.616Z,119.91
2024-05-09T01:16:05.566Z,117.24
2024-05-09T01:17:05.545Z,117.29
2024-05-09T01:18:05.694Z,114.14
2024-05-09T01:19:05.634Z,116.06
2024-05-09T01:20:06.429Z,116.65
2024-05-09T01:21:05.704Z,116.73
2024-05-09T01:22:05.548Z,117.13
2024-05-09T01:23:05.593Z,117.24
2024-05-09T01:24:05.569Z,118.08
2024-05-09T01:25:05.577Z,119.37
2024-05-09T01:26:05.625Z,116.78
2024-05-09T01:27:05.650Z,116.80
2024-05-09T01:28:05.580Z,117.38
2024-05-09T01:29:05.617Z,117.89
2024-05-09T01:30:09.490Z,117.71
2024-05-09T01:31:06.602Z,117.82
2024-05-09T01:32:05.695Z,117.81
2024-05-09T01:33:07.363Z,118.77
2024-05-09T01:34:05.634Z,117.84
2024-05-09T01:35:05.612Z,118.29
2024-05-09T01:36:05.664Z,118.25
2024-05-09T01:37:05.659Z,120.03
2024-05-09T01:38:05.782Z,119.24
2024-05-09T01:39:05.592Z,118.76
2024-05-09T01:40:09.557Z,120.73
2024-05-09T01:41:06.772Z,120.84
2024-05-09T01:42:05.613Z,121.15
2024-05-09T01:43:05.612Z,120.40
2024-05-09T01:44:05.613Z,122.65
2024-05-09T01:45:05.635Z,122.52
2024-05-09T01:46:05.582Z,120.92
2024-05-09T01:47:05.675Z,118.65
2024-05-09T01:48:05.803Z,118.74
2024-05-09T01:49:05.732Z,122.09
2024-05-09T01:50:08.978Z,120.07
2024-05-09T01:51:06.710Z,120.13
2024-05-09T01:52:05.631Z,120.31
2024-05-09T01:53:05.679Z,120.42
2024-05-09T01:54:05.630Z,120.75
2024-05-09T01:55:06.710Z,119.78
2024-05-09T01:56:05.606Z,119.34
2024-05-09T01:57:05.635Z,123.01
2024-05-09T01:58:05.689Z,120.87
2024-05-09T01:59:05.685Z,119.85
2024-05-09T02:00:07.841Z,120.10
2024-05-09T02:01:05.786Z,121.33
2024-05-09T02:02:05.873Z,119.79
2024-05-09T02:03:05.899Z,122.91
2024-05-09T02:04:05.986Z,121.91
2024-05-09T02:05:06.000Z,122.59
2024-05-09T02:06:05.826Z,118.98
2024-05-09T02:07:05.718Z,121.56
2024-05-09T02:08:05.736Z,122.80
2024-05-09T02:09:05.756Z,121.18
2024-05-09T02:10:13.602Z,120.24
2024-05-09T02:11:06.861Z,120.36
2024-05-09T02:12:06.055Z,120.49
2024-05-09T02:13:05.760Z,121.20
2024-05-09T02:14:05.810Z,121.46
2024-05-09T02:15:05.771Z,121.78
2024-05-09T02:16:05.794Z,122.71
2024-05-09T02:17:05.814Z,122.38
2024-05-09T02:18:05.975Z,120.70
2024-05-09T02:19:05.969Z,120.77
2024-05-09T02:20:06.298Z,120.92
2024-05-09T02:21:05.776Z,119.99
2024-05-09T02:22:05.758Z,122.68
2024-05-09T02:23:06.310Z,120.79
2024-05-09T02:24:05.776Z,120.54
2024-05-09T02:25:05.804Z,121.22
2024-05-09T02:26:05.886Z,121.75
2024-05-09T02:27:05.809Z,121.02
2024-05-09T02:28:05.801Z,122.32
2024-05-09T02:29:05.855Z,121.29
2024-05-09T02:30:12.273Z,120.19
2024-05-09T02:31:06.822Z,120.38
2024-05-09T02:32:05.864Z,120.52
2024-05-09T02:33:05.994Z,121.56
2024-05-09T02:34:05.949Z,122.12
2024-05-09T02:35:05.863Z,122.95
2024-05-09T02:36:05.842Z,120.38
2024-05-09T02:37:05.877Z,122.47
2024-05-09T02:38:05.953Z,121.69
2024-05-09T02:39:05.797Z,121.56
2024-05-09T02:40:09.034Z,123.29
2024-05-09T02:41:05.883Z,124.29
2024-05-09T02:42:05.819Z,125.17
2024-05-09T02:43:06.094Z,124.39
2024-05-09T02:44:05.890Z,122.99
2024-05-09T02:45:05.834Z,121.64
2024-05-09T02:46:05.853Z,121.55
2024-05-09T02:47:05.972Z,122.36
2024-05-09T02:48:06.209Z,122.92
2024-05-09T02:49:05.981Z,121.90
2024-05-09T02:50:07.823Z,123.17
2024-05-09T02:51:05.913Z,123.26
2024-05-09T02:52:05.850Z,123.39
2024-05-09T02:53:06.257Z,123.61
2024-05-09T02:54:05.801Z,124.52
2024-05-09T02:55:05.809Z,122.80
2024-05-09T02:56:05.879Z,122.13
2024-05-09T02:57:05.954Z,123.46
2024-05-09T02:58:05.824Z,121.71
2024-05-09T02:59:05.929Z,122.46
2024-05-09T03:00:07.704Z,123.64
2024-05-09T03:01:05.978Z,123.18
2024-05-09T03:02:05.907Z,123.86
2024-05-09T03:03:06.033Z,124.19
2024-05-09T03:04:05.925Z,123.96
2024-05-09T03:05:05.848Z,122.28
2024-05-09T03:06:05.816Z,122.74
2024-05-09T03:07:05.842Z,122.61
2024-05-09T03:08:05.941Z,122.02
2024-05-09T03:09:05.844Z,123.36
2024-05-09T03:10:11.904Z,123.00
2024-05-09T03:11:06.982Z,123.22
2024-05-09T03:12:05.979Z,123.58
2024-05-09T03:13:05.905Z,124.21
2024-05-09T03:14:05.862Z,125.19
2024-05-09T03:15:05.827Z,122.47
2024-05-09T03:16:05.850Z,124.13
2024-05-09T03:17:05.907Z,124.91
2024-05-09T03:18:06.260Z,124.41
2024-05-09T03:19:05.980Z,124.51
2024-05-09T03:20:11.519Z,124.19
2024-05-09T03:21:06.996Z,124.32
2024-05-09T03:22:05.841Z,124.65
2024-05-09T03:23:06.386Z,125.85
2024-05-09T03:24:05.896Z,126.36
2024-05-09T03:25:05.862Z,123.52
2024-05-09T03:26:05.875Z,125.08
2024-05-09T03:27:05.888Z,125.10
2024-05-09T03:28:05.865Z,123.16
2024-05-09T03:29:05.908Z,124.48
2024-05-09T03:30:07.624Z,124.90
2024-05-09T03:31:05.901Z,122.84
2024-05-09T03:32:06.094Z,125.56
2024-05-09T03:33:06.011Z,124.68
2024-05-09T03:34:06.069Z,125.23
2024-05-09T03:35:05.891Z,123.30
2024-05-09T03:36:09.042Z,122.61
2024-05-09T03:37:05.888Z,122.79
2024-05-09T03:38:05.952Z,123.22
2024-05-09T03:39:05.898Z,123.78
2024-05-09T03:40:09.328Z,123.75
2024-05-09T03:41:06.908Z,122.89
2024-05-09T03:42:05.917Z,123.06
2024-05-09T03:43:05.931Z,123.66
2024-05-09T03:44:05.901Z,124.91
2024-05-09T03:45:05.885Z,124.79
2024-05-09T03:46:05.889Z,125.30
2024-05-09T03:47:06.037Z,125.69
2024-05-09T03:48:06.011Z,125.98
2024-05-09T03:49:05.955Z,125.36
2024-05-09T03:50:07.796Z,123.00
2024-05-09T03:51:07.051Z,123.21
2024-05-09T03:52:05.884Z,123.89
2024-05-09T03:53:05.936Z,123.95
2024-05-09T03:54:05.895Z,125.28
2024-05-09T03:55:05.904Z,126.64
2024-05-09T03:56:05.972Z,124.88
2024-05-09T03:57:05.918Z,125.87
2024-05-09T03:58:05.924Z,125.62
2024-05-09T03:59:05.973Z,127.13
2024-05-09T04:00:11.971Z,124.20
2024-05-09T04:01:06.946Z,124.34
2024-05-09T04:02:06.056Z,124.70
2024-05-09T04:03:07.708Z,125.52
2024-05-09T04:04:05.967Z,124.39
2024-05-09T04:05:05.926Z,125.19
2024-05-09T04:06:05.935Z,125.54
2024-05-09T04:07:05.972Z,126.56
2024-05-09T04:08:05.971Z,125.44
2024-05-09T04:09:05.947Z,122.02
2024-05-09T04:10:08.894Z,120.99
2024-05-09T04:11:06.036Z,121.07
2024-05-09T04:12:05.977Z,121.06
2024-05-09T04:13:05.962Z,120.20
2024-05-09T04:14:05.966Z,117.23
2024-05-09T04:15:07.524Z,116.07
2024-05-09T04:16:05.946Z,116.64
2024-05-09T04:17:05.981Z,114.94
2024-05-09T04:18:06.220Z,112.61
2024-05-09T04:19:06.051Z,110.54
2024-05-09T04:20:08.349Z,107.74
2024-05-09T04:21:15.735Z,50.00
2024-05-09T04:22:15.725Z,50.00
2024-05-09T04:23:15.732Z,50.00
2024-05-09T04:24:15.673Z,50.00
2024-05-09T04:25:15.675Z,50.00
2024-05-09T04:26:15.734Z,51.12
2024-05-09T04:27:15.687Z,51.21
2024-05-09T04:28:15.711Z,50.00
2024-05-09T04:29:15.702Z,50.14
2024-05-09T04:30:25.339Z,50.00
2024-05-09T04:31:27.804Z,50.00
2024-05-09T04:32:27.892Z,50.00
2024-05-09T04:33:27.926Z,50.00
2024-05-09T04:34:27.872Z,50.00
2024-05-09T04:35:27.923Z,50.00
2024-05-09T04:36:27.793Z,50.02
2024-05-09T04:37:27.880Z,52.03
2024-05-09T04:38:27.812Z,51.13
2024-05-09T04:39:27.809Z,50.00
2024-05-09T04:40:33.338Z,51.14
2024-05-09T04:41:28.840Z,51.25
2024-05-09T04:42:27.939Z,51.46
2024-05-09T04:43:27.839Z,51.16
2024-05-09T04:44:27.950Z,48.51
2024-05-09T04:45:27.811Z,47.63
2024-05-09T04:46:27.810Z,50.00
2024-05-09T04:47:28.011Z,50.00
2024-05-09T04:48:27.919Z,54.39
2024-05-09T04:49:27.907Z,53.57
2024-05-09T04:50:35.899Z,50.87
2024-05-09T04:51:28.817Z,51.01
2024-05-09T04:52:27.843Z,51.09
2024-05-09T04:53:27.875Z,50.93
2024-05-09T04:54:34.274Z,49.78
2024-05-09T04:55:28.836Z,51.00
2024-05-09T04:56:27.908Z,51.20
2024-05-09T04:57:27.834Z,50.21
2024-05-09T04:58:27.831Z,51.42
2024-05-09T04:59:27.913Z,49.09
2024-05-09T05:00:35.312Z,52.01
2024-05-09T05:01:28.840Z,52.15
2024-05-09T05:02:27.948Z,52.40
2024-05-09T05:03:27.997Z,52.02
2024-05-09T05:04:27.877Z,52.85
2024-05-09T05:05:27.875Z,53.27
2024-05-09T05:06:27.822Z,53.71
2024-05-09T05:07:27.866Z,52.20
2024-05-09T05:08:27.890Z,55.10
2024-05-09T05:09:27.857Z,52.03
2024-05-09T05:10:33.662Z,53.17
2024-05-09T05:11:28.965Z,53.24
2024-05-09T05:12:28.041Z,53.51
2024-05-09T05:13:27.884Z,53.55
2024-05-09T05:14:27.998Z,52.32
2024-05-09T05:15:27.845Z,53.21
2024-05-09T05:16:27.869Z,53.17
2024-05-09T05:17:28.044Z,51.24
2024-05-09T05:18:28.302Z,53.71
2024-05-09T05:19:28.058Z,51.92
2024-05-09T05:20:33.272Z,50.88
2024-05-09T05:21:29.003Z,51.08
2024-05-09T05:22:27.875Z,51.95
2024-05-09T05:23:27.957Z,52.55
2024-05-09T05:24:27.863Z,53.77
2024-05-09T05:25:27.864Z,55.17
2024-05-09T05:26:27.943Z,56.53
2024-05-09T05:27:27.889Z,53.59
2024-05-09T05:28:27.892Z,53.99
2024-05-09T05:29:27.909Z,55.31
2024-05-09T05:30:32.601Z,54.55
2024-05-09T05:31:28.928Z,54.66
2024-05-09T05:32:27.997Z,54.99
2024-05-09T05:33:28.065Z,55.63
2024-05-09T05:34:27.882Z,56.55
2024-05-09T05:35:28.039Z,55.01
2024-05-09T05:36:27.917Z,53.68
2024-05-09T05:37:27.900Z,55.56
2024-05-09T05:38:28.670Z,55.19
2024-05-09T05:39:27.912Z,55.56
2024-05-09T05:40:35.406Z,56.11
2024-05-09T05:41:28.999Z,56.29
2024-05-09T05:42:27.883Z,56.54
2024-05-09T05:43:27.880Z,55.86
2024-05-09T05:44:28.007Z,55.72
2024-05-09T05:45:27.906Z,57.53
2024-05-09T05:46:27.900Z,55.80
2024-05-09T05:47:28.004Z,56.99
2024-05-09T05:48:28.005Z,57.88
2024-05-09T05:49:27.991Z,57.26
2024-05-09T05:50:35.332Z,58.80
2024-05-09T05:51:28.909Z,58.84
2024-05-09T05:52:27.896Z,58.97
2024-05-09T05:53:27.971Z,58.30
2024-05-09T05:54:27.912Z,57.34
2024-05-09T05:55:27.931Z,56.07
2024-05-09T05:56:28.021Z,58.96
2024-05-09T05:57:27.923Z,57.83
2024-05-09T05:58:27.943Z,58.62
2024-05-09T05:59:28.029Z,53.83
2024-05-09T06:00:34.472Z,56.24
2024-05-09T06:01:29.114Z,56.29
2024-05-09T06:02:28.027Z,56.26
2024-05-09T06:03:28.022Z,55.60
2024-05-09T06:04:28.088Z,54.29
2024-05-09T06:05:27.955Z,52.78
2024-05-09T06:06:27.945Z,52.09
2024-05-09T06:07:27.945Z,53.32
2024-05-09T06:08:30.302Z,50.90
2024-05-09T06:09:28.167Z,52.09
2024-05-09T06:10:35.120Z,51.44
2024-05-09T06:11:29.367Z,51.60
2024-05-09T06:12:28.343Z,51.67
2024-05-09T06:13:28.205Z,51.64
2024-05-09T06:14:28.195Z,52.54
2024-05-09T06:15:28.148Z,50.39
2024-05-09T06:16:28.228Z,52.17
2024-05-09T06:17:28.346Z,53.39
2024-05-09T06:18:28.375Z,50.58
2024-05-09T06:19:28.454Z,51.80
2024-05-09T06:20:35.243Z,52.88
2024-05-09T06:21:29.266Z,52.96
2024-05-09T06:22:28.199Z,52.93
2024-05-09T06:23:28.277Z,50.58
2024-05-09T06:24:28.188Z,49.60
2024-05-09T06:25:28.214Z,46.76
2024-05-09T06:26:28.270Z,51.87
2024-05-09T06:27:28.235Z,52.22
2024-05-09T06:28:28.255Z,50.60
2024-05-09T06:29:28.384Z,52.15
2024-05-09T06:30:36.961Z,51.26
2024-05-09T06:31:29.953Z,51.43
2024-05-09T06:32:28.364Z,51.57
2024-05-09T06:33:28.520Z,52.91
2024-05-09T06:34:28.305Z,54.95
2024-05-09T06:35:28.414Z,58.40
2024-05-09T06:36:28.267Z,60.01
2024-05-09T06:37:28.248Z,60.55
2024-05-09T06:38:28.274Z,58.64
2024-05-09T06:39:28.237Z,59.59
2024-05-09T06:40:36.477Z,60.11
2024-05-09T06:41:29.304Z,60.21
2024-05-09T06:42:28.243Z,59.71
2024-05-09T06:43:28.244Z,56.04
2024-05-09T06:44:28.404Z,55.85
2024-05-09T06:45:28.253Z,56.35
2024-05-09T06:46:28.238Z,53.37
2024-05-09T06:47:28.492Z,53.61
2024-05-09T06:48:28.440Z,53.09
2024-05-09T06:49:28.374Z,53.28
2024-05-09T06:50:35.268Z,54.80
2024-05-09T06:51:29.269Z,54.88
2024-05-09T06:52:28.257Z,54.17
2024-05-09T06:53:28.348Z,54.80
2024-05-09T06:54:28.268Z,55.52
2024-05-09T06:55:28.282Z,52.30
2024-05-09T06:56:28.309Z,51.59
2024-05-09T06:57:28.284Z,50.72
2024-05-09T06:58:28.244Z,50.83
2024-05-09T06:59:28.501Z,53.25
2024-05-09T07:00:35.724Z,53.34
2024-05-09T07:01:29.428Z,53.43
2024-05-09T07:02:28.483Z,54.05
2024-05-09T07:03:28.580Z,54.84
2024-05-09T07:04:28.457Z,55.85
2024-05-09T07:05:28.504Z,58.88
2024-05-09T07:06:28.477Z,58.95
2024-05-09T07:07:28.413Z,60.58
2024-05-09T07:08:28.451Z,60.83
2024-05-09T07:09:28.424Z,60.51
2024-05-09T07:10:34.138Z,63.23
2024-05-09T07:11:29.607Z,63.28
2024-05-09T07:12:28.622Z,62.10
2024-05-09T07:13:28.512Z,63.74
2024-05-09T07:14:28.837Z,61.51
2024-05-09T07:15:28.541Z,64.34
2024-05-09T07:16:28.488Z,64.05
2024-05-09T07:17:28.768Z,63.30
2024-05-09T07:18:28.771Z,64.28
2024-05-09T07:19:28.709Z,64.53
2024-05-09T07:20:34.384Z,63.53
2024-05-09T07:21:29.525Z,63.66
2024-05-09T07:22:28.486Z,63.83
2024-05-09T07:23:28.535Z,64.04
2024-05-09T07:24:28.546Z,64.51
2024-05-09T07:25:28.715Z,65.44
2024-05-09T07:26:28.610Z,64.52
2024-05-09T07:27:28.556Z,62.80
2024-05-09T07:28:28.554Z,63.97
2024-05-09T07:29:28.725Z,63.24
2024-05-09T07:30:33.341Z,61.28
2024-05-09T07:31:29.550Z,61.43
2024-05-09T07:32:28.731Z,61.48
2024-05-09T07:33:28.851Z,62.26
2024-05-09T07:34:28.669Z,63.46
2024-05-09T07:35:28.821Z,63.01
2024-05-09T07:36:28.569Z,65.54
2024-05-09T07:37:28.571Z,63.13
2024-05-09T07:38:28.543Z,64.12
2024-05-09T07:39:28.531Z,62.28
2024-05-09T07:40:35.113Z,61.14
2024-05-09T07:41:29.617Z,61.28
2024-05-09T07:42:28.559Z,61.36
2024-05-09T07:43:28.557Z,61.41
2024-05-09T07:44:28.669Z,61.15
2024-05-09T07:45:45.039Z,62.08
2024-05-09T07:47:36.934Z,61.25
2024-05-09T07:48:57.104Z,61.35
2024-05-09T07:50:01.173Z,61.56
2024-05-09T07:53:32.503Z,61.71
2024-05-09T07:53:40.167Z,61.80
2024-05-09T07:54:29.880Z,61.76
2024-05-09T07:55:28.780Z,63.77
2024-05-09T07:56:28.837Z,66.12
2024-05-09T07:57:28.670Z,67.66
2024-05-09T07:58:28.601Z,71.84
2024-05-09T07:59:28.625Z,71.49
2024-05-09T08:00:31.689Z,69.89
2024-05-09T08:01:28.957Z,69.94
2024-05-09T08:02:28.793Z,69.45
2024-05-09T08:03:28.896Z,69.68
2024-05-09T08:04:28.719Z,67.69
2024-05-09T08:05:28.823Z,69.39
2024-05-09T08:06:28.657Z,68.49
2024-05-09T08:07:28.582Z,67.76
2024-05-09T08:08:28.646Z,67.45
2024-05-09T08:09:28.723Z,67.31
2024-05-09T08:10:29.315Z,68.56
2024-05-09T08:11:28.640Z,66.69
2024-05-09T08:12:28.680Z,66.28
2024-05-09T08:13:28.605Z,66.68
2024-05-09T08:14:28.626Z,65.94
2024-05-09T08:15:28.820Z,65.01
2024-05-09T08:16:28.867Z,65.77
2024-05-09T08:17:28.737Z,65.00
2024-05-09T08:18:28.822Z,66.45
2024-05-09T08:19:28.658Z,66.03
2024-05-09T08:20:33.475Z,65.31
2024-05-09T08:21:29.739Z,65.45
2024-05-09T08:22:28.621Z,65.76
2024-05-09T08:23:28.715Z,66.29
2024-05-09T08:24:28.689Z,66.93
2024-05-09T08:25:28.689Z,67.31
2024-05-09T08:26:28.641Z,67.44
2024-05-09T08:27:28.644Z,68.12
2024-05-09T08:28:28.721Z,66.99
2024-05-09T08:29:28.717Z,65.46
2024-05-09T08:30:33.862Z,66.42
2024-05-09T08:31:29.688Z,66.50
2024-05-09T08:32:28.734Z,66.54
2024-05-09T08:33:28.833Z,66.80
2024-05-09T08:34:28.784Z,67.47
2024-05-09T08:35:28.652Z,68.25
2024-05-09T08:36:28.704Z,68.29
2024-05-09T08:37:32.835Z,68.72
2024-05-09T08:38:29.652Z,68.83
2024-05-09T08:39:28.679Z,68.98
2024-05-09T08:40:34.559Z,69.23
2024-05-09T08:41:29.670Z,68.89
2024-05-09T08:42:28.763Z,69.37
2024-05-09T08:43:28.741Z,69.69
2024-05-09T08:44:28.647Z,69.45
2024-05-09T08:45:28.730Z,69.78
2024-05-09T08:46:28.769Z,69.58
2024-05-09T08:47:28.778Z,70.09
2024-05-09T08:48:28.860Z,68.20
2024-05-09T08:49:28.794Z,67.06
2024-05-09T08:50:36.067Z,68.37
2024-05-09T08:51:29.698Z,68.43
2024-05-09T08:52:28.680Z,68.73
2024-05-09T08:53:28.693Z,69.03
2024-05-09T08:54:28.696Z,68.03
2024-05-09T08:55:28.693Z,69.82
2024-05-09T08:56:28.654Z,70.83
2024-05-09T08:57:28.644Z,71.09
2024-05-09T08:58:28.667Z,69.71
2024-05-09T08:59:28.667Z,71.11
2024-05-09T09:00:36.318Z,70.11
2024-05-09T09:01:29.843Z,70.23
2024-05-09T09:02:28.880Z,70.82
2024-05-09T09:03:28.802Z,71.18
2024-05-09T09:04:28.819Z,72.27
2024-05-09T09:05:28.833Z,73.65
2024-05-09T09:06:28.748Z,75.51
2024-05-09T09:07:28.784Z,74.83
2024-05-09T09:08:28.723Z,73.80
2024-05-09T09:09:28.708Z,73.14
2024-05-09T09:10:32.135Z,72.99
2024-05-09T09:11:28.742Z,73.12
2024-05-09T09:12:28.806Z,73.38
2024-05-09T09:13:28.732Z,73.84
2024-05-09T09:14:28.724Z,75.73
2024-05-09T09:15:28.719Z,75.37
2024-05-09T09:16:28.743Z,76.49
2024-05-09T09:17:28.780Z,75.04
2024-05-09T09:18:29.060Z,75.58
2024-05-09T09:19:28.749Z,77.36
2024-05-09T09:20:34.042Z,75.75
2024-05-09T09:21:29.764Z,75.91
2024-05-09T09:22:28.737Z,76.54
2024-05-09T09:23:28.707Z,76.92
2024-05-09T09:24:28.743Z,77.98
2024-05-09T09:25:28.699Z,77.64
2024-05-09T09:26:28.706Z,78.14
2024-05-09T09:27:28.756Z,76.62
2024-05-09T09:28:28.717Z,78.91
2024-05-09T09:29:28.726Z,78.48
2024-05-09T09:30:36.287Z,78.07
2024-05-09T09:31:29.819Z,78.17
2024-05-09T09:32:28.776Z,78.48
2024-05-09T09:33:29.687Z,78.95
2024-05-09T09:34:28.976Z,79.17
2024-05-09T09:35:28.721Z,79.49
2024-05-09T09:36:28.724Z,79.80
2024-05-09T09:37:28.734Z,80.17
2024-05-09T09:38:28.716Z,79.89
2024-05-09T09:39:28.761Z,79.62
2024-05-09T09:40:32.256Z,80.04
2024-05-09T09:41:29.734Z,80.18
2024-05-09T09:42:28.711Z,80.31
2024-05-09T09:43:28.712Z,80.50
2024-05-09T09:44:28.723Z,81.28
2024-05-09T09:45:28.777Z,82.67
2024-05-09T09:46:28.943Z,81.80
2024-05-09T09:47:28.801Z,82.89
2024-05-09T09:48:28.870Z,83.32
2024-05-09T09:49:28.837Z,82.88
2024-05-09T09:50:34.238Z,82.25
2024-05-09T09:51:29.807Z,82.38
2024-05-09T09:52:28.824Z,82.90
2024-05-09T09:53:28.757Z,83.46
2024-05-09T09:54:28.767Z,83.62
2024-05-09T09:55:28.720Z,86.36
2024-05-09T09:56:28.739Z,85.80
2024-05-09T09:57:28.781Z,85.57
2024-05-09T09:58:28.770Z,86.07
2024-05-09T09:59:28.719Z,85.84
2024-05-09T10:00:32.903Z,86.94
2024-05-09T10:01:29.875Z,87.02
2024-05-09T10:02:28.858Z,87.32
2024-05-09T10:03:28.793Z,87.63
2024-05-09T10:04:28.853Z,88.46
2024-05-09T10:05:29.017Z,88.48
2024-05-09T10:06:28.791Z,89.33
2024-05-09T10:07:28.753Z,88.29
2024-05-09T10:08:28.794Z,89.93
2024-05-09T10:09:28.797Z,90.28
2024-05-09T10:10:32.451Z,88.49
2024-05-09T10:11:28.779Z,88.58
2024-05-09T10:12:28.844Z,88.96
2024-05-09T10:13:28.800Z,88.79
2024-05-09T10:14:28.744Z,90.33
2024-05-09T10:15:28.916Z,89.22
2024-05-09T10:16:28.852Z,90.61
2024-05-09T10:17:28.926Z,91.09
2024-05-09T10:18:31.191Z,90.55
2024-05-09T10:19:28.977Z,90.64
2024-05-09T10:20:32.541Z,90.92
2024-05-09T10:21:28.796Z,90.75
2024-05-09T10:22:28.767Z,91.18
2024-05-09T10:23:28.880Z,91.47
2024-05-09T10:24:28.767Z,93.70
2024-05-09T10:25:28.774Z,94.34
2024-05-09T10:26:28.734Z,93.03
2024-05-09T10:27:28.835Z,93.51
2024-05-09T10:28:28.767Z,92.72
2024-05-09T10:29:28.746Z,91.69
2024-05-09T10:30:34.255Z,91.96
2024-05-09T10:31:29.825Z,92.13
2024-05-09T10:32:28.864Z,92.46
2024-05-09T10:33:28.851Z,92.99
2024-05-09T10:34:28.882Z,94.13
2024-05-09T10:35:28.762Z,94.83
2024-05-09T10:36:28.840Z,94.22
2024-05-09T10:37:28.829Z,94.59
2024-05-09T10:38:28.758Z,93.40
2024-05-09T10:39:28.809Z,95.35
2024-05-09T10:40:31.437Z,95.08
2024-05-09T10:41:28.758Z,96.65
2024-05-09T10:42:28.806Z,94.74
2024-05-09T10:43:28.850Z,94.60
2024-05-09T10:44:28.745Z,94.19
2024-05-09T10:45:28.764Z,94.29
2024-05-09T10:46:28.771Z,94.95
2024-05-09T10:47:28.942Z,95.37
2024-05-09T10:48:28.827Z,95.12
2024-05-09T10:49:28.805Z,94.10
2024-05-09T10:50:32.075Z,95.37
2024-05-09T10:51:29.792Z,95.49
2024-05-09T10:52:28.853Z,95.73
2024-05-09T10:53:28.803Z,96.12
2024-05-09T10:54:28.814Z,96.27
2024-05-09T10:55:28.837Z,96.90
2024-05-09T10:56:28.815Z,96.58
2024-05-09T10:57:28.814Z,96.47
2024-05-09T10:58:28.773Z,97.36
2024-05-09T10:59:28.797Z,95.15
2024-05-09T11:00:33.849Z,97.97
2024-05-09T11:01:29.896Z,97.99
2024-05-09T11:02:28.872Z,98.14
2024-05-09T11:03:28.933Z,97.15
2024-05-09T11:04:28.870Z,97.80
2024-05-09T11:05:28.836Z,98.04
2024-05-09T11:06:28.879Z,97.55
2024-05-09T11:07:28.870Z,97.46
2024-05-09T11:08:28.813Z,96.95
2024-05-09T11:09:28.878Z,96.32
2024-05-09T11:10:33.753Z,96.84
2024-05-09T11:11:29.953Z,96.97
2024-05-09T11:12:28.910Z,97.40
2024-05-09T11:13:28.844Z,97.71
2024-05-09T11:14:28.820Z,97.76
2024-05-09T11:15:28.862Z,99.21
2024-05-09T11:16:28.842Z,96.93
2024-05-09T11:17:28.939Z,98.76
2024-05-09T11:18:31.688Z,97.56
2024-05-09T11:19:29.945Z,97.66
2024-05-09T11:20:29.991Z,97.80
2024-05-09T11:21:29.189Z,97.72
2024-05-09T11:22:28.824Z,98.25
2024-05-09T11:23:28.815Z,98.61
2024-05-09T11:24:28.831Z,99.07
2024-05-09T11:25:28.829Z,97.02
2024-05-09T11:26:28.828Z,96.77
2024-05-09T11:27:28.876Z,98.50
2024-05-09T11:28:29.118Z,98.89
2024-05-09T11:29:28.786Z,99.08
2024-05-09T11:30:31.890Z,99.13
2024-05-09T11:31:28.893Z,99.16
2024-05-09T11:32:29.165Z,99.23
2024-05-09T11:33:28.890Z,99.15
2024-05-09T11:34:28.950Z,98.29
2024-05-09T11:35:28.827Z,98.88
2024-05-09T11:36:28.921Z,99.02
2024-05-09T11:37:28.878Z,97.70
2024-05-09T11:38:28.815Z,97.40
2024-05-09T11:39:28.894Z,96.77
2024-05-09T11:40:34.155Z,98.57
2024-05-09T11:41:29.836Z,98.65
2024-05-09T11:42:28.866Z,98.75
2024-05-09T11:43:28.867Z,99.09
2024-05-09T11:44:28.787Z,98.79
2024-05-09T11:45:28.911Z,98.58
2024-05-09T11:46:28.881Z,98.45
2024-05-09T11:47:28.949Z,97.63
2024-05-09T11:48:29.003Z,97.22
2024-05-09T11:49:28.903Z,98.38
2024-05-09T11:50:32.914Z,97.97
2024-05-09T11:51:29.939Z,98.07
2024-05-09T11:52:28.847Z,98.11
2024-05-09T11:53:28.854Z,98.18
2024-05-09T11:54:28.939Z,99.22
2024-05-09T11:55:28.938Z,99.66
2024-05-09T11:56:28.833Z,97.84
2024-05-09T11:57:28.919Z,98.09
2024-05-09T11:58:28.880Z,98.01
2024-05-09T11:59:28.838Z,98.12
2024-05-09T12:00:34.458Z,96.93
2024-05-09T12:01:30.003Z,97.00
2024-05-09T12:02:28.883Z,97.26
2024-05-09T12:03:29.179Z,98.25
2024-05-09T12:04:28.930Z,98.42
2024-05-09T12:05:29.125Z,99.32
2024-05-09T12:06:28.885Z,98.48
2024-05-09T12:07:28.890Z,100.45
2024-05-09T12:08:28.849Z,98.45
2024-05-09T12:09:28.934Z,98.30
2024-05-09T12:10:32.906Z,98.82
2024-05-09T12:11:29.875Z,98.89
2024-05-09T12:12:28.861Z,98.83
2024-05-09T12:13:28.868Z,99.06
2024-05-09T12:14:28.851Z,99.28
2024-05-09T12:15:28.967Z,97.38
2024-05-09T12:16:28.948Z,98.71
2024-05-09T12:17:29.048Z,98.98
2024-05-09T12:18:29.043Z,97.89
2024-05-09T12:19:28.914Z,95.93
2024-05-09T12:20:36.108Z,96.14
2024-05-09T12:21:29.901Z,96.32
2024-05-09T12:22:28.842Z,96.60
2024-05-09T12:23:28.844Z,97.57
2024-05-09T12:24:28.941Z,97.14
2024-05-09T12:25:28.832Z,97.80
2024-05-09T12:26:28.886Z,98.41
2024-05-09T12:27:28.914Z,96.57
2024-05-09T12:28:28.857Z,99.09
2024-05-09T12:29:28.846Z,96.93
2024-05-09T12:30:36.235Z,96.48
2024-05-09T12:31:30.045Z,96.60
2024-05-09T12:32:28.967Z,96.89
2024-05-09T12:33:28.996Z,97.03
2024-05-09T12:34:28.915Z,97.74
2024-05-09T12:35:28.837Z,98.34
2024-05-09T12:36:28.983Z,98.82
2024-05-09T12:37:28.869Z,99.37
2024-05-09T12:38:28.850Z,98.89
2024-05-09T12:39:28.889Z,99.20
2024-05-09T12:40:35.772Z,98.39
2024-05-09T12:41:29.889Z,98.52
2024-05-09T12:42:30.533Z,98.91
2024-05-09T12:43:29.000Z,99.34
2024-05-09T12:44:28.894Z,100.44
2024-05-09T12:45:28.895Z,101.77
2024-05-09T12:46:28.992Z,101.24
2024-05-09T12:47:28.939Z,97.94